Terminal Aerodrome Forecast
Issued by NWS Cleveland, OH

Home | Current Version | Previous Version | Text Only | Print | Product List | Glossary Off
Versions: 1 2 3 4 5 6 7 8 9 10 11 12 13 14 15 16

000
FTUS41 KCLE 161120
TAFCAK
TAF
KCAK 161120Z 1612/1712 27014G22KT P6SM VCSH SCT015 OVC025
      TEMPO 1612/1616 3SM -SHRA BKN015
     FM161800 30018G28KT P6SM OVC020
     FM162300 31012KT P6SM OVC025=

USA.gov is the U.S. government's official web portal to all federal, state and local government web resources and services.